createdAt,value
2022-09-05T00:00:19.333Z,2.57
2022-09-05T00:03:23.411Z,5.30
2022-09-05T00:06:06.649Z,2.97
2022-09-05T00:11:50.751Z,2.50
2022-09-05T00:15:16.218Z,4.37
2022-09-05T00:20:40.630Z,3.85
2022-09-05T00:24:26.947Z,3.20
2022-09-05T00:24:32.628Z,4.82
2022-09-05T00:27:16.180Z,5.28
2022-09-05T00:31:08.737Z,3.60
2022-09-05T00:32:51.027Z,4.60
2022-09-05T00:35:26.056Z,3.67
2022-09-05T00:37:53.861Z,4.90
2022-09-05T00:40:27.230Z,4.00
2022-09-05T00:43:01.739Z,4.00
2022-09-05T00:45:32.784Z,4.40
2022-09-05T00:48:15.313Z,4.30
2022-09-05T00:51:20.945Z,8.18
2022-09-05T00:54:29.888Z,4.40
2022-09-05T00:57:47.790Z,3.50
2022-09-05T01:00:17.825Z,3.70
2022-09-05T01:03:10.028Z,4.85
2022-09-05T01:05:45.208Z,4.13
2022-09-05T01:08:24.274Z,3.88
2022-09-05T01:11:03.753Z,6.63
2022-09-05T01:13:45.573Z,5.47
2022-09-05T01:16:13.135Z,4.65
2022-09-05T01:18:57.792Z,4.30
2022-09-05T01:21:48.249Z,4.57
2022-09-05T01:24:38.700Z,3.47
2022-09-05T01:28:12.592Z,4.57
2022-09-05T01:30:32.114Z,5.40
2022-09-05T01:33:07.565Z,4.35
2022-09-05T01:35:54.944Z,4.30
2022-09-05T01:38:38.344Z,3.53
2022-09-05T01:41:19.939Z,5.65
2022-09-05T01:43:57.049Z,4.82
2022-09-05T01:46:32.404Z,4.25
2022-09-05T01:49:13.956Z,4.18
2022-09-05T01:52:19.122Z,5.40
2022-09-05T01:55:13.718Z,4.90
2022-09-05T01:58:16.782Z,5.10
2022-09-05T02:01:25.402Z,5.80
2022-09-05T02:04:18.197Z,6.40
2022-09-05T02:06:55.736Z,7.13
2022-09-05T02:10:10.678Z,7.30
2022-09-05T02:13:01.850Z,5.63
2022-09-05T02:15:42.894Z,6.38
2022-09-05T02:18:27.522Z,6.10
2022-09-05T02:21:00.790Z,4.90
2022-09-05T02:23:41.638Z,4.60
2022-09-05T02:26:18.725Z,4.20
2022-09-05T02:29:01.288Z,5.28
2022-09-05T02:31:48.285Z,7.30
2022-09-05T02:34:30.851Z,6.87
2022-09-05T02:37:12.274Z,9.27
2022-09-05T02:45:05.898Z,4.85
2022-09-05T02:45:08.518Z,4.75
2022-09-05T02:46:01.313Z,4.22
2022-09-05T02:48:33.303Z,5.43
2022-09-05T02:57:30.319Z,6.13
2022-09-05T02:57:33.493Z,5.43
2022-09-05T02:57:42.318Z,5.55
2022-09-05T03:00:19.127Z,5.45
2022-09-05T03:03:07.986Z,5.77
2022-09-05T03:05:44.130Z,7.32
2022-09-05T03:08:19.742Z,7.20
2022-09-05T03:11:02.285Z,4.60
2022-09-05T03:14:11.217Z,6.47
2022-09-05T03:17:04.190Z,7.57
2022-09-05T03:19:52.778Z,7.76
2022-09-05T03:22:36.224Z,6.07
2022-09-05T03:25:17.545Z,7.03
2022-09-05T03:28:03.813Z,5.35
2022-09-05T03:30:44.217Z,5.97
2022-09-05T03:33:37.034Z,6.13
2022-09-05T03:36:09.583Z,6.32
2022-09-05T03:39:06.127Z,5.85
2022-09-05T03:42:03.159Z,6.07
2022-09-05T03:44:38.617Z,6.77
2022-09-05T03:47:34.755Z,8.40
2022-09-05T03:54:33.743Z,6.82
2022-09-05T03:57:10.413Z,6.40
2022-09-05T03:57:24.819Z,7.60
2022-09-05T04:00:04.877Z,5.90
2022-09-05T04:08:11.092Z,8.05
2022-09-05T04:08:16.456Z,6.07
2022-09-05T04:08:43.328Z,6.82
2022-09-05T04:11:41.874Z,8.80
2022-09-05T04:14:20.849Z,9.93
2022-09-05T04:16:52.763Z,6.93
2022-09-05T04:19:25.295Z,7.45
2022-09-05T04:22:03.287Z,7.75
2022-09-05T04:24:57.472Z,9.60
2022-09-05T04:27:40.113Z,7.83
2022-09-05T04:30:38.829Z,8.70
2022-09-05T04:33:36.392Z,6.65
2022-09-05T04:36:21.061Z,6.47
2022-09-05T04:39:19.205Z,8.00
2022-09-05T04:41:51.325Z,6.60
2022-09-05T04:44:36.424Z,6.07
2022-09-05T04:47:06.146Z,6.72
2022-09-05T04:49:38.128Z,6.68
2022-09-05T04:52:33.323Z,7.78
2022-09-05T04:55:10.491Z,5.83
2022-09-05T04:57:51.566Z,9.02
2022-09-05T05:06:02.966Z,7.75
2022-09-05T05:06:08.909Z,7.75
2022-09-05T05:06:37.888Z,6.72
2022-09-05T05:09:22.872Z,7.33
2022-09-05T05:18:01.692Z,9.52
2022-09-05T05:18:12.356Z,7.80
2022-09-05T05:18:15.333Z,8.15
2022-09-05T05:20:41.493Z,10.07
2022-09-05T05:23:18.624Z,6.13
2022-09-05T05:25:57.281Z,8.77
2022-09-05T05:28:48.974Z,6.63
2022-09-05T05:31:21.906Z,7.03
2022-09-05T05:33:51.484Z,7.22
2022-09-05T05:36:28.354Z,8.37
2022-09-05T05:39:09.188Z,9.27
2022-09-05T05:41:43.392Z,7.85
2022-09-05T05:44:14.548Z,9.27
2022-09-05T05:46:46.448Z,8.25
2022-09-05T05:49:37.198Z,9.00
2022-09-05T05:52:22.698Z,8.27
2022-09-05T05:55:48.968Z,8.85
2022-09-05T05:58:11.814Z,8.57
2022-09-05T06:01:00.205Z,7.55
2022-09-05T06:03:54.381Z,13.10
2022-09-05T06:06:38.402Z,9.50
2022-09-05T06:14:51.107Z,11.68
2022-09-05T06:15:04.400Z,9.85
2022-09-05T06:16:06.447Z,7.82
2022-09-05T06:18:57.047Z,8.70
2022-09-05T06:22:10.090Z,12.70
2022-09-05T06:24:37.122Z,10.80
2022-09-05T06:27:21.503Z,11.27
2022-09-05T06:30:01.703Z,10.15
2022-09-05T06:32:36.406Z,10.53
2022-09-05T06:35:15.668Z,11.23
2022-09-05T06:39:07.661Z,11.45
2022-09-05T07:03:28.651Z,12.90
2022-09-05T07:06:05.935Z,12.63
2022-09-05T07:09:01.012Z,16.77
2022-09-05T07:11:55.489Z,9.95
2022-09-05T07:14:38.981Z,9.77
2022-09-05T07:17:18.973Z,12.60
2022-09-05T07:20:00.846Z,11.87
2022-09-05T07:22:47.893Z,9.02
2022-09-05T07:25:21.527Z,10.63
2022-09-05T07:28:26.191Z,11.93
2022-09-05T07:30:50.377Z,11.93
2022-09-05T07:33:22.605Z,11.83
2022-09-05T07:35:51.604Z,10.18
2022-09-05T07:38:26.456Z,11.18
2022-09-05T07:41:00.222Z,12.63
2022-09-05T07:43:35.400Z,10.15
2022-09-05T07:46:12.444Z,11.37
2022-09-05T07:48:43.376Z,10.98
2022-09-05T07:55:43.491Z,12.52
2022-09-05T07:56:52.336Z,10.45
2022-09-05T08:00:02.939Z,12.90
2022-09-05T08:02:29.670Z,10.70
2022-09-05T08:05:02.752Z,11.18
2022-09-05T08:07:46.966Z,9.77
2022-09-05T08:10:31.053Z,11.23
2022-09-05T08:13:22.767Z,10.83
2022-09-05T08:16:10.154Z,10.32
2022-09-05T08:18:46.357Z,12.00
2022-09-05T08:21:27.184Z,9.30
2022-09-05T08:24:13.955Z,9.10
2022-09-05T08:26:47.221Z,8.43
2022-09-05T08:29:32.263Z,5.95
2022-09-05T08:32:13.538Z,6.22
2022-09-05T08:34:45.473Z,5.00
2022-09-05T08:37:21.398Z,6.80
2022-09-05T08:40:11.346Z,5.10
2022-09-05T08:44:39.418Z,4.68
2022-09-05T08:46:39.918Z,5.00
2022-09-05T08:49:06.751Z,4.82
2022-09-05T08:51:55.268Z,3.60
2022-09-05T08:54:45.360Z,5.70
2022-09-05T08:57:39.636Z,7.22
2022-09-05T09:00:19.167Z,2.70
2022-09-05T09:03:14.526Z,3.22
2022-09-05T09:05:59.376Z,3.58
2022-09-05T09:08:56.475Z,3.90
2022-09-05T09:11:41.396Z,2.85
2022-09-05T09:14:38.188Z,4.40
2022-09-05T09:17:26.779Z,5.90
2022-09-05T09:20:13.071Z,2.08
2022-09-05T09:22:52.521Z,2.00
2022-09-05T09:25:26.454Z,2.83
2022-09-05T09:28:46.585Z,1.40
2022-09-05T09:30:58.492Z,1.55
2022-09-05T09:33:46.151Z,1.20
2022-09-05T09:36:35.272Z,2.63
2022-09-05T09:39:38.864Z,2.20
2022-09-05T09:42:33.053Z,2.70
2022-09-05T09:45:27.808Z,3.50
2022-09-05T09:48:02.762Z,2.72
2022-09-05T09:50:36.524Z,4.53
2022-09-05T09:53:16.677Z,2.47
2022-09-05T09:55:58.104Z,2.55
2022-09-05T09:58:52.096Z,1.70
2022-09-05T10:01:35.975Z,1.45
2022-09-05T10:09:15.011Z,5.20
2022-09-05T10:10:49.029Z,3.25
2022-09-05T10:11:05.257Z,1.63
2022-09-05T10:13:26.789Z,4.70
2022-09-05T10:16:16.478Z,1.90
2022-09-05T10:19:08.561Z,3.03
2022-09-05T10:25:19.023Z,2.38
2022-09-05T10:28:01.619Z,1.50
2022-09-05T10:33:03.787Z,1.58
2022-09-05T10:35:17.072Z,2.57
2022-09-05T10:36:36.860Z,5.63
2022-09-05T10:39:21.022Z,1.60
2022-09-05T10:41:55.202Z,1.80
2022-09-05T10:44:46.503Z,2.10
2022-09-05T10:47:17.613Z,2.70
2022-09-05T10:49:49.017Z,2.58
2022-09-05T10:52:25.689Z,2.88
2022-09-05T10:55:14.191Z,1.95
2022-09-05T10:57:58.764Z,2.10
2022-09-05T11:02:21.865Z,1.50
2022-09-05T11:03:53.567Z,2.25
2022-09-05T11:06:35.734Z,2.30
2022-09-05T11:09:14.362Z,4.00
2022-09-05T11:11:46.875Z,2.08
2022-09-05T11:14:33.935Z,2.67
2022-09-05T11:17:18.124Z,2.75
2022-09-05T11:19:55.360Z,2.47
2022-09-05T11:22:26.989Z,1.40
2022-09-05T11:24:55.654Z,3.28
2022-09-05T11:27:36.227Z,1.33
2022-09-05T11:30:28.935Z,0.95
2022-09-05T11:39:52.769Z,2.10
2022-09-05T11:40:07.749Z,1.42
2022-09-05T11:40:08.556Z,1.45
2022-09-05T11:41:50.420Z,3.13
2022-09-05T11:44:27.725Z,5.63
2022-09-05T11:47:28.652Z,3.15
2022-09-05T11:50:34.015Z,2.63
2022-09-05T11:53:23.491Z,1.80
2022-09-05T11:57:30.501Z,2.20
2022-09-05T12:00:31.390Z,1.40
2022-09-05T12:03:57.480Z,1.83
2022-09-05T12:06:33.560Z,2.22
2022-09-05T12:09:27.445Z,2.50
2022-09-05T12:12:06.250Z,1.70
2022-09-05T12:15:24.413Z,2.67
2022-09-05T12:18:00.604Z,1.40
2022-09-05T12:20:49.305Z,1.40
2022-09-05T12:23:53.657Z,1.92
2022-09-05T12:27:40.546Z,2.37
2022-09-05T12:29:29.555Z,2.15
2022-09-05T12:36:11.959Z,3.33
2022-09-05T12:40:45.050Z,1.80
2022-09-05T12:41:38.801Z,3.43
2022-09-05T12:44:36.308Z,2.13
2022-09-05T12:46:33.272Z,1.63
2022-09-05T12:49:08.643Z,2.58
2022-09-05T12:51:46.294Z,1.92
2022-09-05T12:54:33.514Z,3.63
2022-09-05T13:00:13.880Z,2.70
2022-09-05T13:02:57.795Z,2.78
2022-09-05T13:03:13.064Z,1.33
2022-09-05T13:05:46.054Z,2.33
2022-09-05T13:08:21.132Z,3.80
2022-09-05T13:21:26.777Z,2.15
2022-09-05T13:38:01.631Z,1.90
2022-09-05T13:38:11.252Z,2.65
2022-09-05T13:40:17.794Z,3.97
2022-09-05T13:42:57.461Z,3.10
2022-09-05T13:45:26.631Z,2.25
2022-09-05T13:48:15.414Z,3.40
2022-09-05T13:50:57.707Z,4.05
2022-09-05T13:53:36.810Z,4.00
2022-09-05T13:56:52.907Z,3.17
2022-09-05T13:59:49.101Z,1.67
2022-09-05T14:05:51.832Z,3.65
2022-09-05T14:08:33.775Z,2.30
2022-09-05T14:11:32.750Z,2.03
2022-09-05T14:20:36.501Z,2.25
2022-09-05T14:23:10.710Z,3.73
2022-09-05T14:25:44.633Z,2.55
2022-09-05T14:28:18.376Z,2.30
2022-09-05T14:33:11.073Z,2.97
2022-09-05T14:37:40.802Z,2.22
2022-09-05T14:38:01.063Z,1.67
2022-09-05T14:40:30.768Z,2.03
2022-09-05T14:43:14.170Z,1.80
2022-09-05T14:46:23.826Z,4.32
2022-09-05T14:49:13.067Z,3.65
2022-09-05T14:51:39.639Z,4.73
2022-09-05T14:54:12.561Z,1.85
2022-09-05T15:02:02.420Z,1.85
2022-09-05T15:02:44.635Z,2.95
2022-09-05T15:02:56.671Z,2.10
2022-09-05T15:05:21.228Z,2.07
2022-09-05T15:07:58.671Z,2.50
2022-09-05T15:12:14.945Z,4.32
2022-09-05T15:13:25.955Z,2.10
2022-09-05T15:16:06.560Z,4.97
2022-09-05T15:18:39.401Z,3.40
2022-09-05T15:21:30.642Z,4.22
2022-09-05T15:24:35.367Z,3.75
2022-09-05T15:27:04.905Z,3.65
2022-09-05T15:29:34.712Z,2.75
2022-09-05T15:32:17.491Z,2.60
2022-09-05T15:34:44.125Z,3.15
2022-09-05T15:37:33.207Z,8.68
2022-09-05T15:40:07.772Z,2.47
2022-09-05T15:51:20.842Z,2.55
2022-09-05T15:53:51.807Z,2.85
2022-09-05T15:56:44.220Z,1.98
2022-09-05T15:59:12.743Z,3.43
2022-09-05T16:01:58.875Z,2.25
2022-09-05T16:10:37.632Z,4.03
2022-09-05T16:11:19.765Z,3.88
2022-09-05T16:13:52.376Z,1.20
2022-09-05T16:19:58.194Z,1.38
2022-09-05T16:23:27.192Z,1.20
2022-09-05T16:23:31.628Z,3.50
2022-09-05T16:25:32.140Z,2.47
2022-09-05T16:28:03.566Z,2.07
2022-09-05T16:30:33.263Z,1.80
2022-09-05T16:36:16.384Z,2.85
2022-09-05T16:39:05.749Z,3.70
2022-09-05T16:41:45.536Z,4.67
2022-09-05T16:45:23.759Z,3.75
2022-09-05T16:47:50.871Z,2.70
2022-09-05T16:50:34.153Z,4.30
2022-09-05T16:53:58.022Z,1.85
2022-09-05T16:57:44.600Z,2.83
2022-09-05T17:09:12.891Z,2.70
2022-09-05T17:12:23.713Z,2.03
2022-09-05T17:19:03.327Z,2.67
2022-09-05T17:31:26.593Z,3.15
2022-09-05T17:33:02.435Z,2.00
2022-09-05T17:38:43.132Z,2.08
2022-09-05T17:45:32.827Z,1.73
2022-09-05T17:48:04.993Z,2.63
2022-09-05T18:39:15.063Z,4.43
2022-09-05T18:41:42.998Z,7.53
2022-09-05T18:44:13.095Z,5.25
2022-09-05T18:46:47.307Z,5.47
2022-09-05T18:50:25.335Z,5.35
2022-09-05T18:52:23.429Z,5.75
2022-09-05T18:56:12.182Z,5.13
2022-09-05T18:57:49.905Z,8.02
2022-09-05T19:00:35.028Z,4.88
2022-09-05T19:03:28.951Z,3.70
2022-09-05T19:05:56.511Z,5.57
2022-09-05T19:08:47.763Z,4.07
2022-09-05T19:11:28.186Z,5.55
2022-09-05T19:14:25.390Z,6.05
2022-09-05T19:16:48.087Z,3.63
2022-09-05T19:19:18.684Z,4.53
2022-09-05T19:22:39.574Z,2.20
2022-09-05T19:24:46.225Z,5.13
2022-09-05T19:33:50.500Z,3.72
2022-09-05T19:36:51.933Z,2.92
2022-09-05T19:36:58.828Z,4.13
2022-09-05T19:37:08.355Z,4.60
2022-09-05T19:38:26.435Z,4.00
2022-09-05T19:47:28.039Z,3.67
2022-09-05T19:47:42.238Z,4.75
2022-09-05T19:47:56.206Z,4.80
2022-09-05T19:49:39.196Z,5.53
2022-09-05T19:52:16.348Z,5.20
2022-09-05T19:54:43.108Z,6.32
2022-09-05T19:57:16.962Z,5.07
2022-09-05T19:59:45.546Z,3.70
2022-09-05T20:02:21.944Z,2.97
2022-09-05T20:04:52.829Z,5.88
2022-09-05T20:07:23.039Z,4.07
2022-09-05T20:09:56.144Z,5.15
2022-09-05T20:12:35.718Z,2.65
2022-09-05T20:15:21.242Z,2.70
2022-09-05T20:17:48.002Z,1.67
2022-09-05T20:20:25.663Z,4.43
2022-09-05T20:22:58.366Z,2.35
2022-09-05T20:25:37.738Z,2.67
2022-09-05T20:28:10.178Z,3.67
2022-09-05T20:30:42.828Z,3.22
2022-09-05T20:33:16.131Z,1.98
2022-09-05T20:43:10.556Z,2.30
2022-09-05T20:43:19.344Z,4.57
2022-09-05T20:43:22.840Z,2.13
2022-09-05T20:44:22.444Z,3.30
2022-09-05T20:54:09.274Z,2.85
2022-09-05T20:54:09.498Z,7.00
2022-09-05T20:54:16.796Z,3.38
2022-09-05T20:55:40.161Z,6.37
2022-09-05T20:58:19.540Z,3.35
2022-09-05T21:01:21.522Z,4.43
2022-09-05T21:03:56.323Z,5.00
2022-09-05T21:06:33.580Z,2.63
2022-09-05T21:09:11.967Z,3.23
2022-09-05T21:11:39.944Z,6.25
2022-09-05T21:14:07.642Z,5.70
2022-09-05T21:16:43.264Z,2.45
2022-09-05T21:19:23.790Z,3.72
2022-09-05T21:22:04.299Z,3.73
2022-09-05T21:24:31.290Z,4.18
2022-09-05T21:27:17.413Z,3.40
2022-09-05T21:29:45.574Z,4.93
2022-09-05T21:32:20.582Z,3.17
2022-09-05T21:34:53.426Z,4.07
2022-09-05T21:37:20.121Z,4.60
2022-09-05T21:39:58.827Z,3.55
2022-09-05T21:46:50.070Z,3.30
2022-09-05T21:47:37.890Z,3.38
2022-09-05T21:48:01.780Z,2.60
2022-09-05T21:50:34.253Z,3.35
2022-09-05T21:53:52.412Z,2.53
2022-09-05T21:59:21.635Z,3.08
2022-09-05T21:59:36.868Z,4.05
2022-09-05T22:01:46.296Z,3.83
2022-09-05T22:04:12.703Z,3.95
2022-09-05T22:06:39.247Z,4.15
2022-09-05T22:09:13.965Z,4.60
2022-09-05T22:11:41.067Z,3.83
2022-09-05T22:14:09.040Z,5.33
2022-09-05T22:16:45.245Z,4.60
2022-09-05T22:19:17.748Z,6.50
2022-09-05T22:21:44.494Z,3.65
2022-09-05T22:24:11.870Z,5.32
2022-09-05T22:26:52.014Z,5.50
2022-09-05T22:29:34.550Z,5.88
2022-09-05T22:32:01.766Z,3.33
2022-09-05T22:34:28.311Z,3.47
2022-09-05T22:36:56.190Z,4.25
2022-09-05T22:39:37.232Z,5.77
2022-09-05T22:42:10.546Z,4.78
2022-09-05T22:44:39.883Z,5.60
2022-09-05T22:47:09.817Z,4.85
2022-09-05T22:49:36.984Z,4.10
2022-09-05T22:52:09.663Z,4.43
2022-09-05T22:54:36.360Z,3.13
2022-09-05T22:57:04.119Z,7.97
2022-09-05T22:59:30.772Z,3.95
2022-09-05T23:01:57.531Z,5.15
2022-09-05T23:04:24.291Z,3.07
2022-09-05T23:06:50.921Z,3.53
2022-09-05T23:09:17.495Z,3.55
2022-09-05T23:11:44.104Z,2.85
2022-09-05T23:14:10.695Z,2.53
2022-09-05T23:16:37.299Z,3.37
2022-09-05T23:19:03.939Z,4.38
2022-09-05T23:21:30.749Z,2.65
2022-09-05T23:23:57.316Z,3.65
2022-09-05T23:26:23.908Z,4.60
2022-09-05T23:28:50.484Z,2.83
2022-09-05T23:31:17.467Z,2.15
2022-09-05T23:33:44.198Z,3.60
2022-09-05T23:36:15.754Z,3.47
2022-09-05T23:38:44.487Z,3.17
2022-09-05T23:41:13.672Z,3.20
2022-09-05T23:43:40.314Z,3.70
2022-09-05T23:46:07.567Z,2.60
2022-09-05T23:48:34.523Z,2.22
2022-09-05T23:51:20.022Z,2.67
2022-09-05T23:53:46.750Z,4.93
2022-09-05T23:56:13.368Z,4.18
2022-09-05T23:58:40.054Z,3.35
